Time;durP1;ratioP1;P1;durP2;ratioP2;P2;SDS_P1;SDS_P2;PMS_P1;PMS_P2;Temp;Humidity;BMP_temperature;BMP_pressure;BME280_temperature;BME280_humidity;BME280_pressure;Samples;Min_cycle;Max_cycle;Signal;HPM_P1;HPM_P2
2021/09/17 00:02:17;;;;;;;6.73;6.03;;;;;;;16.15;67.36;96805.13;5092646;28;20761;-65
2021/09/17 00:04:43;;;;;;;6.43;5.63;;;;;;;16.08;67.49;96805.09;5093089;28;20698;-65
2021/09/17 00:07:09;;;;;;;5.70;5.10;;;;;;;16.19;67.18;96801.03;5092687;28;20296;-65
2021/09/17 00:09:34;;;;;;;6.43;5.83;;;;;;;16.22;66.99;96799.84;5093053;28;20282;-66
2021/09/17 00:12:01;;;;;;;6.20;5.60;;;;;;;16.15;66.93;96805.13;5087531;28;20200;-67
2021/09/17 00:14:28;;;;;;;6.07;5.47;;;;;;;16.24;67.13;96806.56;5093057;28;20174;-65
2021/09/17 00:16:53;;;;;;;5.73;5.20;;;;;;;16.13;67.28;96807.94;5092447;28;20977;-65
2021/09/17 00:19:19;;;;;;;8.50;6.20;;;;;;;16.09;67.39;96801.44;5092683;28;20428;-66
2021/09/17 00:21:44;;;;;;;6.80;5.73;;;;;;;16.12;67.49;96803.69;5092923;28;20184;-65
2021/09/17 00:24:10;;;;;;;7.30;6.60;;;;;;;16.19;67.25;96813.47;5091562;28;20212;-65
2021/09/17 00:26:35;;;;;;;5.80;5.20;;;;;;;16.37;66.71;96804.97;5092596;28;20818;-65
2021/09/17 00:29:01;;;;;;;6.50;5.30;;;;;;;16.41;66.56;96804.38;5091077;28;20232;-65
2021/09/17 00:31:26;;;;;;;6.10;5.50;;;;;;;16.46;66.38;96808.25;5092232;28;20632;-67
2021/09/17 00:33:52;;;;;;;5.70;5.17;;;;;;;16.51;66.12;96798.72;5092464;28;20184;-66
2021/09/17 00:36:18;;;;;;;9.03;5.20;;;;;;;16.56;65.88;96795.47;5092260;28;20217;-66
2021/09/17 00:38:43;;;;;;;5.97;5.47;;;;;;;16.34;66.30;96792.97;5092213;28;20185;-66
2021/09/17 00:41:11;;;;;;;5.90;5.20;;;;;;;16.45;66.28;96790.75;5086841;28;20186;-67
2021/09/17 00:43:38;;;;;;;5.77;4.60;;;;;;;16.58;65.87;96782.84;5092091;28;20197;-66
2021/09/17 00:46:04;;;;;;;5.13;4.63;;;;;;;16.67;65.74;96786.94;5091792;28;20942;-65
2021/09/17 00:48:29;;;;;;;7.37;5.23;;;;;;;16.72;65.69;96779.22;5092062;28;20416;-65
2021/09/17 00:50:55;;;;;;;8.30;5.57;;;;;;;16.72;65.16;96779.22;5092275;28;20526;-66
2021/09/17 00:53:21;;;;;;;5.23;4.73;;;;;;;16.76;65.47;96779.63;5091965;28;20185;-66
2021/09/17 00:55:46;;;;;;;14.23;8.17;;;;;;;16.79;65.23;96775.75;5092182;28;20534;-66
2021/09/17 00:58:12;;;;;;;7.10;5.03;;;;;;;16.33;66.25;96787.88;5089972;28;20311;-66
2021/09/17 01:00:37;;;;;;;5.20;4.80;;;;;;;16.16;67.19;96784.78;5091493;28;20181;-66
2021/09/17 01:03:03;;;;;;;10.00;5.10;;;;;;;16.37;66.33;96781.19;5099519;28;20212;-65
2021/09/17 01:05:28;;;;;;;9.83;4.80;;;;;;;16.17;66.28;96787.22;5091909;28;20189;-65
2021/09/17 01:07:54;;;;;;;5.40;5.00;;;;;;;16.19;66.66;96789.66;5091296;28;20221;-65
2021/09/17 01:10:20;;;;;;;12.27;5.60;;;;;;;16.29;66.47;96784.81;5089207;28;20196;-65
2021/09/17 01:12:45;;;;;;;5.10;4.60;;;;;;;16.37;66.42;96786.47;5087741;28;20185;-65
2021/09/17 01:15:12;;;;;;;9.43;5.07;;;;;;;16.49;65.90;96776.13;5090014;28;20575;-64
2021/09/17 01:17:40;;;;;;;5.53;5.03;;;;;;;16.43;66.28;96780.41;5099212;28;20219;-66
2021/09/17 01:20:09;;;;;;;6.00;5.20;;;;;;;16.57;65.79;96765.34;5092391;28;20419;-66
2021/09/17 01:22:35;;;;;;;5.60;5.10;;;;;;;16.70;65.41;96775.97;5091158;28;20921;-65
2021/09/17 01:25:00;;;;;;;9.70;5.37;;;;;;;16.49;65.64;96774.28;5093009;28;20415;-65
2021/09/17 01:27:26;;;;;;;10.17;5.33;;;;;;;16.45;65.53;96778.34;5091727;28;20596;-65
2021/09/17 01:29:52;;;;;;;6.20;5.20;;;;;;;16.49;65.59;96774.28;5090726;28;20182;-65
2021/09/17 01:32:18;;;;;;;6.03;5.53;;;;;;;16.56;65.09;96769.84;5091179;28;20605;-66
2021/09/17 01:34:43;;;;;;;7.50;5.27;;;;;;;16.68;64.74;96767.41;5093739;28;20795;-65
2021/09/17 01:37:09;;;;;;;6.13;5.53;;;;;;;16.67;64.42;96757.84;5090514;28;20225;-64
2021/09/17 01:39:35;;;;;;;5.57;5.07;;;;;;;16.85;64.26;96751.13;5090880;28;20182;-66
2021/09/17 01:42:00;;;;;;;7.67;5.60;;;;;;;16.76;63.93;96758.47;5085303;28;20192;-66
2021/09/17 01:44:26;;;;;;;6.80;5.70;;;;;;;16.57;64.34;96758.22;5091247;28;20212;-65
2021/09/17 01:46:51;;;;;;;5.77;5.27;;;;;;;16.54;64.49;96755.16;5091532;28;20211;-65
2021/09/17 01:49:17;;;;;;;6.27;5.20;;;;;;;16.20;65.61;96760.38;5091672;28;20181;-66
2021/09/17 01:51:42;;;;;;;10.00;5.43;;;;;;;16.24;65.71;96760.81;5091745;28;20268;-66
2021/09/17 01:54:08;;;;;;;7.07;5.60;;;;;;;16.56;65.25;96755.78;5091527;28;20572;-66
2021/09/17 01:56:34;;;;;;;9.83;5.57;;;;;;;16.73;64.49;96753.56;5092033;28;20213;-65
2021/09/17 01:59:00;;;;;;;6.03;5.43;;;;;;;16.78;64.56;96747.66;5090480;28;20232;-65
2021/09/17 02:01:26;;;;;;;6.67;5.80;;;;;;;16.67;65.04;96744.59;5091411;28;21015;-65
2021/09/17 02:03:52;;;;;;;7.17;5.43;;;;;;;16.60;65.47;96743.78;5090786;28;20684;-65
2021/09/17 02:06:22;;;;;;;8.30;5.57;;;;;;;16.42;66.04;96742.53;5091226;28;20467;-65
2021/09/17 02:08:48;;;;;;;6.03;5.43;;;;;;;16.55;65.81;96740.94;5090810;28;20216;-66
2021/09/17 02:11:14;;;;;;;6.10;5.60;;;;;;;16.71;65.50;96740.53;5102159;28;20794;-64
2021/09/17 02:13:39;;;;;;;6.30;5.43;;;;;;;16.78;65.32;96739.72;5113154;28;20178;-66
2021/09/17 02:16:05;;;;;;;6.17;5.57;;;;;;;16.74;65.42;96739.31;5112964;28;20284;-65
2021/09/17 02:18:32;;;;;;;6.70;5.40;;;;;;;16.69;65.77;96736.47;5112343;28;20224;-66
2021/09/17 02:20:57;;;;;;;7.63;5.83;;;;;;;16.76;65.78;96736.50;5111646;28;20273;-66
2021/09/17 02:23:23;;;;;;;7.40;6.10;;;;;;;16.65;65.70;96736.06;5111017;28;20514;-66
2021/09/17 02:25:48;;;;;;;5.63;5.00;;;;;;;16.69;65.34;96739.94;5102609;28;20185;-65
2021/09/17 02:28:14;;;;;;;5.73;5.23;;;;;;;16.85;65.17;96736.06;5096419;28;20235;-65
2021/09/17 02:30:40;;;;;;;5.30;4.80;;;;;;;16.92;64.50;96738.72;5093995;28;20252;-65
2021/09/17 02:33:05;;;;;;;5.53;5.03;;;;;;;16.81;65.14;96732.22;5093026;28;20177;-64
2021/09/17 02:35:31;;;;;;;5.50;5.00;;;;;;;16.85;64.88;96729.97;5091560;28;20227;-65
2021/09/17 02:37:57;;;;;;;5.90;5.40;;;;;;;16.81;65.25;96731.38;5090052;28;20205;-66
2021/09/17 02:40:22;;;;;;;7.67;5.70;;;;;;;16.73;65.50;96735.88;5088857;28;20181;-66
2021/09/17 02:42:48;;;;;;;5.67;5.10;;;;;;;16.84;65.48;96729.13;5086772;28;20213;-64
2021/09/17 02:45:14;;;;;;;5.83;5.23;;;;;;;16.89;65.64;96723.22;5082195;28;20177;-64
2021/09/17 02:47:41;;;;;;;7.03;5.70;;;;;;;17.03;65.12;96724.88;5090160;28;20198;-65
2021/09/17 02:50:07;;;;;;;6.63;6.00;;;;;;;17.04;64.97;96726.50;5090116;28;20434;-65
2021/09/17 02:52:32;;;;;;;7.30;5.17;;;;;;;16.88;65.67;96721.63;5091627;28;20940;-65
2021/09/17 02:54:58;;;;;;;9.83;6.13;;;;;;;16.94;65.58;96718.19;5093741;28;20416;-66
2021/09/17 02:57:24;;;;;;;14.47;6.10;;;;;;;17.04;65.56;96723.88;5093413;28;20245;-65
2021/09/17 02:59:49;;;;;;;14.90;7.47;;;;;;;17.17;65.31;96716.94;5092745;28;20185;-65
2021/09/17 03:02:15;;;;;;;28.93;8.20;;;;;;;17.22;64.96;96716.31;5093965;28;20178;-65
2021/09/17 03:04:41;;;;;;;36.97;12.33;;;;;;;17.22;65.02;96714.50;5093746;28;20248;-66
2021/09/17 03:07:07;;;;;;;23.50;9.60;;;;;;;17.22;64.95;96713.66;5094744;28;20251;-65
2021/09/17 03:09:33;;;;;;;17.17;7.70;;;;;;;17.20;64.93;96717.31;5093415;28;20185;-66
2021/09/17 03:11:58;;;;;;;12.43;6.13;;;;;;;17.29;64.82;96712.63;5087873;28;20856;-64
2021/09/17 03:14:24;;;;;;;10.50;5.93;;;;;;;17.31;64.53;96707.94;5093769;28;20173;-64
2021/09/17 03:16:50;;;;;;;5.23;4.73;;;;;;;17.25;64.62;96711.44;5096143;28;20205;-66
2021/09/17 03:19:16;;;;;;;7.13;5.40;;;;;;;17.25;64.08;96711.44;5098484;28;20192;-66
2021/09/17 03:21:42;;;;;;;5.03;4.50;;;;;;;17.15;64.14;96703.91;5097574;28;20176;-65
2021/09/17 03:24:07;;;;;;;10.30;4.63;;;;;;;17.25;63.98;96700.00;5093589;28;20827;-66
2021/09/17 03:26:33;;;;;;;5.90;5.40;;;;;;;17.02;64.33;96704.72;5093670;28;20444;-64
2021/09/17 03:28:59;;;;;;;5.50;5.00;;;;;;;16.99;64.16;96705.16;5093318;28;20182;-67
2021/09/17 03:31:25;;;;;;;8.43;5.03;;;;;;;17.10;64.21;96709.00;5081510;28;20184;-66
2021/09/17 03:33:50;;;;;;;9.43;5.70;;;;;;;17.09;64.44;96712.66;5092022;28;20790;-65
2021/09/17 03:36:16;;;;;;;5.20;4.70;;;;;;;17.24;64.02;96717.75;5094057;28;20374;-64
2021/09/17 03:38:41;;;;;;;5.83;5.23;;;;;;;17.33;63.83;96710.38;5096461;28;20205;-65
2021/09/17 03:41:07;;;;;;;5.83;5.23;;;;;;;17.32;63.98;96716.72;5093136;28;20637;-65
2021/09/17 03:43:33;;;;;;;6.20;5.27;;;;;;;17.29;64.06;96717.13;5093134;28;20201;-65
2021/09/17 03:45:59;;;;;;;5.47;4.97;;;;;;;17.38;63.71;96710.56;5093049;28;20220;-65
2021/09/17 03:48:25;;;;;;;5.30;4.60;;;;;;;17.41;63.43;96710.16;5093180;28;20432;-65
2021/09/17 03:50:50;;;;;;;5.40;4.90;;;;;;;17.37;63.65;96713.44;5092948;28;20213;-64
2021/09/17 03:53:16;;;;;;;5.73;5.20;;;;;;;17.20;63.85;96713.88;5092904;28;20457;-65
2021/09/17 03:55:42;;;;;;;6.50;5.67;;;;;;;17.18;64.06;96707.97;5093204;28;20182;-64
2021/09/17 03:58:07;;;;;;;6.97;5.63;;;;;;;16.80;64.96;96719.16;5092291;28;20202;-65
2021/09/17 04:00:34;;;;;;;5.97;5.47;;;;;;;16.89;65.15;96710.00;5091979;28;20272;-66
2021/09/17 04:02:59;;;;;;;6.40;5.77;;;;;;;17.13;64.42;96705.94;5090765;28;20244;-68
2021/09/17 04:05:25;;;;;;;7.40;5.30;;;;;;;17.17;63.78;96708.97;5071299;28;20935;-64
2021/09/17 04:07:50;;;;;;;8.43;5.33;;;;;;;17.18;63.54;96703.50;5088970;28;20322;-64
2021/09/17 04:10:18;;;;;;;6.57;5.97;;;;;;;17.17;63.49;96703.69;5091762;28;20625;-64
2021/09/17 04:12:44;;;;;;;8.83;5.40;;;;;;;17.20;63.46;96700.63;5093265;28;20553;-66
2021/09/17 04:15:10;;;;;;;6.80;5.47;;;;;;;17.06;64.03;96689.28;5094698;28;20416;-65
2021/09/17 04:17:35;;;;;;;7.70;5.67;;;;;;;17.02;64.33;96694.13;5093722;28;20205;-66
2021/09/17 04:20:02;;;;;;;7.30;5.53;;;;;;;17.10;64.34;96692.31;5093089;28;20789;-66
2021/09/17 04:22:27;;;;;;;6.80;5.73;;;;;;;17.15;64.26;96698.63;5092684;28;20683;-65
2021/09/17 04:24:53;;;;;;;7.73;5.70;;;;;;;17.20;64.33;96695.34;5092315;28;20542;-64
2021/09/17 04:27:22;;;;;;;6.17;5.57;;;;;;;17.24;64.08;96695.75;5091831;28;20806;-65
2021/09/17 04:29:48;;;;;;;7.33;5.40;;;;;;;17.26;64.13;96709.59;5092069;28;20186;-64
2021/09/17 04:32:14;;;;;;;6.23;5.60;;;;;;;16.98;65.06;96706.19;5088797;28;20427;-64
2021/09/17 04:34:40;;;;;;;5.40;5.00;;;;;;;16.98;65.39;96708.00;5092139;28;20790;-66
2021/09/17 04:37:05;;;;;;;9.30;6.67;;;;;;;16.83;65.80;96716.13;5091238;28;20447;-64
2021/09/17 04:39:31;;;;;;;9.50;6.73;;;;;;;16.77;66.56;96716.91;5092042;28;20261;-65
2021/09/17 04:41:57;;;;;;;7.90;7.10;;;;;;;16.84;66.30;96720.41;5091633;28;20174;-67
2021/09/17 04:44:22;;;;;;;7.43;6.73;;;;;;;16.77;66.76;96716.91;5092050;28;20202;-66
2021/09/17 04:46:48;;;;;;;6.93;6.00;;;;;;;16.79;66.64;96715.72;5091549;28;20208;-66
2021/09/17 04:49:13;;;;;;;8.87;6.17;;;;;;;16.89;65.80;96720.59;5083045;28;20180;-66
2021/09/17 04:51:39;;;;;;;6.77;6.00;;;;;;;16.85;65.50;96717.53;5091551;28;20189;-65
2021/09/17 04:54:04;;;;;;;7.80;7.00;;;;;;;16.92;65.01;96717.53;5091742;28;20257;-66
2021/09/17 04:56:30;;;;;;;7.83;6.83;;;;;;;16.74;65.46;96718.97;5091756;28;20198;-66
2021/09/17 04:58:56;;;;;;;7.87;7.07;;;;;;;16.86;65.04;96727.09;5091274;28;20250;-66
2021/09/17 05:01:21;;;;;;;10.50;6.83;;;;;;;16.76;65.53;96723.25;5088428;28;20540;-66
2021/09/17 05:03:50;;;;;;;8.00;6.97;;;;;;;16.76;65.65;96716.13;5091414;28;20201;-67
2021/09/17 05:06:15;;;;;;;13.23;6.57;;;;;;;16.83;65.27;96721.41;5083121;28;20189;-65
2021/09/17 05:08:41;;;;;;;10.73;6.97;;;;;;;16.65;65.45;96725.47;5091512;28;20432;-66
2021/09/17 05:11:07;;;;;;;7.43;6.73;;;;;;;16.73;65.20;96733.22;5098013;28;20303;-66
2021/09/17 05:13:32;;;;;;;7.80;7.10;;;;;;;16.77;64.98;96723.03;5092279;28;20211;-66
2021/09/17 05:15:58;;;;;;;6.80;5.70;;;;;;;16.84;64.72;96718.56;5094922;28;20667;-66
2021/09/17 05:18:23;;;;;;;8.87;6.83;;;;;;;16.86;64.58;96723.66;5090785;28;20174;-66
2021/09/17 05:20:49;;;;;;;7.60;6.90;;;;;;;16.84;64.67;96720.41;5091704;28;20193;-65
2021/09/17 05:23:15;;;;;;;8.07;7.37;;;;;;;16.81;64.95;96723.44;5091381;28;20623;-65
2021/09/17 05:25:40;;;;;;;8.03;7.10;;;;;;;16.82;64.95;96731.16;5091437;28;20189;-66
2021/09/17 05:28:06;;;;;;;7.53;6.83;;;;;;;16.78;64.96;96724.69;5090391;28;20213;-66
2021/09/17 05:30:32;;;;;;;6.93;6.23;;;;;;;16.74;65.08;96728.72;5087589;28;20536;-66
2021/09/17 05:32:57;;;;;;;8.20;6.70;;;;;;;16.72;65.23;96733.41;5090327;28;20174;-66
2021/09/17 05:35:23;;;;;;;11.40;7.30;;;;;;;16.68;65.34;96737.50;5091018;28;20182;-66
2021/09/17 05:37:48;;;;;;;9.33;7.00;;;;;;;16.65;65.43;96746.63;5090815;28;20218;-65
2021/09/17 05:40:14;;;;;;;12.53;6.60;;;;;;;16.61;65.39;96740.13;5091342;28;20552;-65
2021/09/17 05:42:39;;;;;;;11.20;7.70;;;;;;;16.59;65.33;96744.81;5085633;28;20209;-65
2021/09/17 05:45:06;;;;;;;7.10;6.50;;;;;;;16.56;65.30;96742.56;5092604;28;20264;-66
2021/09/17 05:47:31;;;;;;;7.50;6.57;;;;;;;16.54;65.42;96745.41;5072895;28;20209;-67
2021/09/17 05:49:57;;;;;;;8.50;7.50;;;;;;;16.56;65.27;96747.84;5089579;28;20432;-65
2021/09/17 05:52:23;;;;;;;8.63;7.73;;;;;;;16.56;65.27;96745.22;5091315;28;20196;-65
2021/09/17 05:54:49;;;;;;;9.93;8.10;;;;;;;16.59;65.19;96739.53;5091131;28;20219;-67
2021/09/17 05:57:14;;;;;;;11.33;7.50;;;;;;;16.60;65.21;96733.22;5090885;28;21048;-65
2021/09/17 05:59:40;;;;;;;9.93;8.10;;;;;;;16.66;65.13;96739.53;5092012;28;20185;-66
2021/09/17 06:02:08;;;;;;;10.80;8.23;;;;;;;16.72;65.10;96736.88;5090777;28;20188;-65
2021/09/17 06:04:34;;;;;;;9.17;8.20;;;;;;;16.82;64.75;96733.81;5091473;28;20198;-64
2021/09/17 06:07:00;;;;;;;10.97;8.13;;;;;;;16.90;64.75;96732.81;5090501;28;20535;-65
2021/09/17 06:09:26;;;;;;;25.93;8.90;;;;;;;16.96;65.04;96734.69;5090899;28;20424;-65
2021/09/17 06:11:51;;;;;;;48.93;9.33;;;;;;;16.98;65.58;96724.69;5090953;28;20694;-66
2021/09/17 06:14:17;;;;;;;21.20;8.97;;;;;;;17.03;65.75;96729.38;5089160;28;20416;-66
2021/09/17 06:16:43;;;;;;;18.70;8.17;;;;;;;17.22;65.37;96726.91;5090811;28;20603;-65
2021/09/17 06:19:08;;;;;;;10.60;7.43;;;;;;;17.21;65.31;96728.75;5090201;28;20181;-65
2021/09/17 06:21:34;;;;;;;8.00;7.20;;;;;;;17.34;65.04;96730.53;5091077;28;20260;-64
2021/09/17 06:24:00;;;;;;;13.90;8.27;;;;;;;17.37;64.61;96729.34;5090445;28;20210;-65
2021/09/17 06:26:30;;;;;;;18.97;8.13;;;;;;;17.41;64.58;96726.06;5091046;28;20208;-65
2021/09/17 06:29:02;;;;;;;14.07;7.40;;;;;;;17.53;64.49;96728.88;5095930;28;20789;-66
2021/09/17 06:31:27;;;;;;;22.17;7.60;;;;;;;17.64;64.14;96738.81;5096944;28;20784;-67
2021/09/17 06:33:53;;;;;;;24.67;7.83;;;;;;;17.69;63.58;96735.56;5095973;28;20423;-65
2021/09/17 06:36:19;;;;;;;16.23;7.10;;;;;;;17.71;63.29;96730.84;5094876;28;20673;-67
2021/09/17 06:38:44;;;;;;;16.37;8.03;;;;;;;17.82;63.10;96734.69;5093064;28;20226;-66
2021/09/17 06:41:10;;;;;;;10.17;7.40;;;;;;;17.80;62.64;96728.78;5094386;28;20611;-67
2021/09/17 06:43:35;;;;;;;14.03;8.40;;;;;;;17.95;62.45;96729.34;5094234;28;20202;-66
2021/09/17 06:46:02;;;;;;;16.03;9.33;;;;;;;18.02;62.29;96728.53;5093774;28;20185;-65
2021/09/17 06:48:27;;;;;;;13.50;8.50;;;;;;;18.01;61.33;96726.91;5094158;28;20182;-65
2021/09/17 06:50:53;;;;;;;11.73;8.37;;;;;;;17.99;61.01;96726.28;5094317;28;20569;-67
2021/09/17 06:53:18;;;;;;;16.13;8.63;;;;;;;18.06;60.67;96727.91;5092524;28;20295;-66
2021/09/17 06:55:44;;;;;;;21.97;11.60;;;;;;;18.10;60.10;96731.72;5094190;28;20260;-66
2021/09/17 06:58:10;;;;;;;12.73;10.93;;;;;;;18.35;59.44;96730.97;5093581;28;20289;-67
2021/09/17 07:00:37;;;;;;;13.33;10.53;;;;;;;18.50;58.99;96724.56;5093905;28;20246;-68
2021/09/17 07:03:03;;;;;;;14.97;10.93;;;;;;;18.55;58.77;96732.72;5096410;28;20307;-68
2021/09/17 07:05:30;;;;;;;17.13;12.17;;;;;;;18.65;58.83;96721.63;5094024;28;20424;-67
2021/09/17 07:08:09;;;;;;;14.83;9.90;;;;;;;18.78;58.62;96731.31;5092052;28;20460;-66
2021/09/17 07:10:36;;;;;;;14.83;9.67;;;;;;;18.82;58.42;96725.34;5093933;28;20945;-67
2021/09/17 07:13:02;;;;;;;13.43;10.27;;;;;;;18.81;58.18;96730.88;5090866;28;20847;-67
2021/09/17 07:15:28;;;;;;;12.40;9.70;;;;;;;18.97;58.30;96726.91;5093739;28;20416;-67
2021/09/17 07:17:54;;;;;;;13.77;9.90;;;;;;;19.00;58.04;96731.78;5094223;28;20979;-68
2021/09/17 07:20:20;;;;;;;17.07;10.60;;;;;;;19.09;58.20;96733.13;5100979;28;20322;-68
2021/09/17 07:22:46;;;;;;;17.37;10.60;;;;;;;19.10;57.86;96728.59;5100837;28;20666;-65
2021/09/17 07:25:13;;;;;;;16.00;9.90;;;;;;;19.21;57.83;96729.75;5096379;28;20416;-67
2021/09/17 07:27:38;;;;;;;17.60;9.80;;;;;;;19.11;58.10;96733.72;5092322;28;20436;-66
2021/09/17 07:30:05;;;;;;;17.23;10.67;;;;;;;19.00;58.21;96739.75;5093606;28;20431;-66
2021/09/17 07:32:31;;;;;;;15.63;10.93;;;;;;;19.21;57.80;96732.41;5094200;28;20253;-68
2021/09/17 07:34:57;;;;;;;16.03;11.10;;;;;;;19.24;57.56;96734.63;5093659;28;20427;-66
2021/09/17 07:37:23;;;;;;;15.60;10.30;;;;;;;19.48;56.93;96728.44;5092063;28;20206;-67
2021/09/17 07:39:49;;;;;;;14.80;9.80;;;;;;;19.60;56.41;96725.84;5092778;28;20174;-66
2021/09/17 07:42:15;;;;;;;17.97;9.87;;;;;;;19.76;55.71;96728.94;5093288;28;20415;-67
2021/09/17 07:44:40;;;;;;;22.00;16.43;;;;;;;19.69;55.86;96734.34;5090886;28;20454;-67
2021/09/17 07:47:07;;;;;;;12.13;10.70;;;;;;;19.86;54.99;96736.41;5093489;28;20189;-67
2021/09/17 07:49:33;;;;;;;13.30;11.80;;;;;;;19.91;54.91;96728.63;5093557;28;20186;-67
2021/09/17 07:51:59;;;;;;;19.83;11.20;;;;;;;19.83;55.05;96728.88;5103003;28;20419;-67
2021/09/17 07:54:25;;;;;;;11.27;9.77;;;;;;;20.13;54.77;96731.59;5093689;28;20181;-67
2021/09/17 07:56:54;;;;;;;11.43;10.30;;;;;;;20.16;53.98;96735.66;5093502;28;20431;-67
2021/09/17 07:59:20;;;;;;;12.73;9.90;;;;;;;20.07;54.45;96735.16;5091463;28;20564;-68
2021/09/17 08:01:46;;;;;;;15.27;10.83;;;;;;;19.94;54.95;96739.63;5092985;28;20491;-67
2021/09/17 08:04:12;;;;;;;17.67;11.10;;;;;;;19.93;54.69;96732.66;5091680;28;20734;-66
2021/09/17 08:06:37;;;;;;;15.03;10.47;;;;;;;20.09;53.95;96731.22;5092697;28;20330;-68
2021/09/17 08:09:03;;;;;;;9.57;8.40;;;;;;;20.24;53.41;96738.81;5092128;28;20413;-65
2021/09/17 08:11:29;;;;;;;13.57;9.60;;;;;;;20.04;53.91;96739.06;5092436;28;20534;-67
2021/09/17 08:13:54;;;;;;;10.77;7.50;;;;;;;20.24;52.87;96738.00;5088735;28;20230;-68
2021/09/17 08:16:20;;;;;;;10.27;8.13;;;;;;;20.22;52.97;96735.59;5092384;28;20265;-67
2021/09/17 08:18:46;;;;;;;10.73;8.33;;;;;;;20.21;52.75;96728.63;5092437;28;20181;-66
2021/09/17 08:21:12;;;;;;;12.80;9.27;;;;;;;20.31;52.88;96733.38;5092559;28;20185;-67
2021/09/17 08:23:38;;;;;;;11.40;8.23;;;;;;;20.49;52.66;96732.50;5092365;28;20233;-66
2021/09/17 08:26:03;;;;;;;10.77;8.47;;;;;;;20.71;51.53;96732.00;5092109;28;20499;-67
2021/09/17 08:28:29;;;;;;;13.53;8.63;;;;;;;20.78;51.86;96731.94;5092032;28;20174;-68
2021/09/17 08:30:55;;;;;;;11.23;8.10;;;;;;;20.82;51.96;96741.06;5092321;28;20231;-67
2021/09/17 08:33:21;;;;;;;12.90;9.20;;;;;;;20.68;52.04;96732.47;5092831;28;20208;-68
2021/09/17 08:35:46;;;;;;;12.27;10.00;;;;;;;20.81;51.13;96734.13;5089526;28;20537;-67
2021/09/17 08:38:12;;;;;;;9.57;8.50;;;;;;;21.11;50.65;96727.91;5090009;28;20733;-66
2021/09/17 08:40:37;;;;;;;14.63;9.70;;;;;;;21.33;50.55;96728.94;5092351;28;20707;-66
2021/09/17 08:43:03;;;;;;;11.73;8.43;;;;;;;21.39;50.02;96731.72;5090010;28;20210;-66
2021/09/17 08:45:30;;;;;;;11.40;8.00;;;;;;;21.50;49.23;96730.91;5092658;28;20217;-66
2021/09/17 08:47:57;;;;;;;11.40;9.00;;;;;;;21.56;49.01;96726.47;5094424;28;20276;-66
2021/09/17 08:50:23;;;;;;;10.60;8.50;;;;;;;21.63;48.45;96733.34;5096293;28;20419;-66
2021/09/17 08:52:49;;;;;;;9.97;7.73;;;;;;;21.83;47.52;96736.66;5097065;28;20560;-66
2021/09/17 08:55:14;;;;;;;10.60;8.00;;;;;;;21.76;48.31;96734.13;5093280;28;20178;-66
2021/09/17 08:57:47;;;;;;;9.00;8.10;;;;;;;21.95;47.82;96737.44;5092438;28;20193;-68
2021/09/17 09:00:27;;;;;;;9.37;7.60;;;;;;;22.12;47.70;96734.81;5092219;28;20264;-67
2021/09/17 09:02:54;;;;;;;10.47;7.93;;;;;;;21.90;48.29;96735.47;5092003;28;20447;-67
2021/09/17 09:05:26;;;;;;;13.13;8.40;;;;;;;22.01;47.66;96733.00;5092198;28;20513;-66
2021/09/17 09:07:52;;;;;;;14.20;9.60;;;;;;;21.78;48.23;96738.16;5091334;28;20565;-66
2021/09/17 09:10:18;;;;;;;12.07;9.10;;;;;;;21.14;49.77;96741.56;5092536;28;20424;-66
2021/09/17 09:12:45;;;;;;;10.00;8.10;;;;;;;21.54;48.90;96740.06;5099744;28;20512;-66
2021/09/17 09:15:25;;;;;;;12.10;9.13;;;;;;;21.66;46.65;96737.38;5083467;28;20205;-67
2021/09/17 09:17:52;;;;;;;10.20;9.20;;;;;;;21.57;46.96;96739.56;5082841;28;20478;-67
2021/09/17 09:20:44;;;;;;;9.77;8.30;;;;;;;21.76;45.96;96726.91;5083507;28;20428;-65
2021/09/17 09:23:19;;;;;;;10.53;8.07;;;;;;;21.85;45.74;96727.38;5083118;28;20468;-65
2021/09/17 09:25:48;;;;;;;8.30;7.00;;;;;;;22.13;45.51;96720.44;5083639;28;20453;-66
2021/09/17 09:28:16;;;;;;;9.57;7.33;;;;;;;22.21;46.57;96722.72;5084239;28;20479;-67
2021/09/17 09:30:42;;;;;;;9.93;8.07;;;;;;;22.16;46.94;96725.31;5083735;28;20471;-66
2021/09/17 09:33:27;;;;;;;11.23;8.50;;;;;;;22.46;45.66;96726.91;5093734;28;20443;-66
2021/09/17 09:36:20;;;;;;;8.80;7.90;;;;;;;22.30;45.97;96720.47;5082164;28;20192;-66
2021/09/17 09:38:50;;;;;;;7.70;6.90;;;;;;;22.70;44.25;96724.09;5083508;28;20434;-67
2021/09/17 09:41:27;;;;;;;8.93;8.00;;;;;;;22.61;44.97;96726.41;5083123;28;20506;-67
2021/09/17 09:44:18;;;;;;;8.07;7.33;;;;;;;22.85;43.36;96727.03;5089454;28;21024;-66
2021/09/17 09:46:44;;;;;;;10.03;6.40;;;;;;;23.21;42.45;96708.09;5082315;28;20439;-67
2021/09/17 09:49:26;;;;;;;11.17;6.43;;;;;;;23.08;42.05;96709.19;5090604;28;20934;-67
2021/09/17 09:52:07;;;;;;;7.40;6.40;;;;;;;22.96;42.63;96706.63;5091072;28;20459;-66
2021/09/17 09:54:34;;;;;;;8.40;7.60;;;;;;;23.00;43.82;96706.97;5088858;28;20488;-66
2021/09/17 09:57:01;;;;;;;7.13;6.47;;;;;;;22.96;42.91;96708.50;5090943;28;20455;-66
2021/09/17 09:59:29;;;;;;;7.87;6.93;;;;;;;22.77;43.02;96708.75;5090450;28;20456;-67
2021/09/17 10:01:56;;;;;;;8.13;6.37;;;;;;;22.77;42.73;96710.59;5092414;28;20412;-67
2021/09/17 10:04:23;;;;;;;8.00;5.40;;;;;;;23.22;41.36;96709.72;5095140;28;20451;-68
2021/09/17 10:07:03;;;;;;;6.47;5.87;;;;;;;23.15;40.88;96711.72;5094608;28;20442;-66
2021/09/17 10:09:29;;;;;;;7.77;5.37;;;;;;;22.97;40.74;96702.91;5094559;28;20443;-66
2021/09/17 10:11:55;;;;;;;7.10;5.10;;;;;;;23.14;39.92;96705.56;5094873;28;20870;-67
2021/09/17 10:14:21;;;;;;;5.73;4.40;;;;;;;23.33;39.88;96699.97;5092445;28;20257;-68
2021/09/17 10:16:47;;;;;;;14.77;11.93;;;;;;;23.39;39.87;96696.31;5094570;28;20778;-67
2021/09/17 10:19:13;;;;;;;6.10;4.83;;;;;;;23.38;40.09;96694.69;5094559;28;20185;-65
2021/09/17 10:21:53;;;;;;;8.43;5.03;;;;;;;23.34;40.75;96696.22;5094843;28;20257;-67
2021/09/17 10:24:29;;;;;;;5.37;4.87;;;;;;;22.75;41.17;96691.34;5097414;28;20262;-66
2021/09/17 10:27:00;;;;;;;4.87;4.47;;;;;;;23.12;41.00;96688.16;5097582;28;20442;-66
2021/09/17 10:29:33;;;;;;;5.73;5.13;;;;;;;23.02;40.90;96683.47;5095970;28;20419;-66
2021/09/17 10:32:02;;;;;;;4.23;3.80;;;;;;;23.02;40.38;96694.97;5095140;28;20565;-68
2021/09/17 10:34:41;;;;;;;5.27;4.00;;;;;;;23.17;38.80;96690.91;5095179;28;20420;-70
2021/09/17 10:37:09;;;;;;;4.90;4.00;;;;;;;23.29;38.86;96682.81;5093130;28;20463;-66
2021/09/17 10:39:35;;;;;;;3.93;3.63;;;;;;;23.17;38.51;96681.03;5094583;28;20424;-68
2021/09/17 10:42:12;;;;;;;5.93;3.53;;;;;;;23.43;38.67;96691.28;5094194;28;20439;-68
2021/09/17 10:45:02;;;;;;;8.60;6.93;;;;;;;23.52;37.77;96683.63;5093807;28;20485;-67
2021/09/17 10:47:40;;;;;;;4.43;4.03;;;;;;;23.70;36.77;96688.66;5094560;28;20520;-67
2021/09/17 10:50:10;;;;;;;4.17;3.70;;;;;;;22.70;37.29;96684.06;5095025;28;20415;-67
2021/09/17 10:52:45;;;;;;;8.00;5.80;;;;;;;23.10;36.39;96674.25;5094666;28;20518;-67
2021/09/17 10:55:42;;;;;;;4.30;3.10;;;;;;;22.97;36.93;96678.06;5092994;28;20433;-66
2021/09/17 10:58:27;;;;;;;4.00;3.70;;;;;;;22.73;40.62;96675.56;5093705;28;20448;-67
2021/09/17 11:00:56;;;;;;;4.83;3.30;;;;;;;22.73;41.21;96677.44;5094159;28;20419;-67
2021/09/17 11:03:40;;;;;;;3.90;3.50;;;;;;;22.88;39.33;96674.97;5094574;28;20928;-67
2021/09/17 11:06:18;;;;;;;4.83;3.47;;;;;;;23.10;37.28;96680.38;5103107;28;20466;-68
2021/09/17 11:08:50;;;;;;;4.40;2.67;;;;;;;23.33;36.28;96678.56;5094175;28;20474;-68
2021/09/17 11:11:42;;;;;;;2.70;2.50;;;;;;;22.96;35.38;96677.25;5085059;28;20470;-67
2021/09/17 11:14:13;;;;;;;2.60;2.40;;;;;;;23.05;36.58;96683.00;5089060;28;20434;-67
2021/09/17 11:16:39;;;;;;;3.83;2.30;;;;;;;23.15;35.98;96677.78;5096367;28;20482;-68
2021/09/17 11:19:07;;;;;;;4.10;2.47;;;;;;;22.66;37.40;96683.72;5091736;28;20435;-67
2021/09/17 11:21:41;;;;;;;3.23;2.80;;;;;;;22.64;36.84;96677.81;5097453;28;20177;-67
2021/09/17 11:24:16;;;;;;;5.87;2.97;;;;;;;22.76;38.18;96680.41;5093770;28;20460;-67
2021/09/17 11:26:47;;;;;;;3.50;2.80;;;;;;;22.78;37.66;96683.66;5093631;28;20856;-67
2021/09/17 11:29:15;;;;;;;3.20;3.00;;;;;;;22.81;37.43;96677.81;5095803;28;20429;-68
2021/09/17 11:31:46;;;;;;;4.63;3.07;;;;;;;22.80;37.73;96670.88;5093289;28;20416;-67